Adelphi, Maryland
Current Conditions -  °F | °C
As of 2:05 AM on Thursday 18 Dec 2014 (Local Time) from KCGS Reporting Station
Scattered Clouds Scattered Clouds  
Wind Chill: 37°   Ceiling: Unl
Heat Index: 37°   Visibility: 10mi
Dew Point: 25°   Wind: 3mph
Humidity: 60%   Direction: 310°NW
Pressure: 30.08"   Gusts: NA
Location:  39°N, 76.97°W
Report Text: KCGS 180705Z AUTO 31003KT 10SM SCT049 03/M04 A3008 RMK AO1
Loading
Personal Weather Stations






























Interactive Weather Map New forecast layout! Learn more

10-Day Weather Forecast

Advertisements
Track Severe Weather on mobile